sensor_id;sensor_type;location;lat;lon;timestamp;pressure;altitude;pressure_sealevel;temperature;humidity
61906;BME280;47863;55.766;37.672;2023-05-07T00:02:24;100945.75;;;1.08;38.12
61906;BME280;47863;55.766;37.672;2023-05-07T00:04:50;100944.06;;;1.07;38.00
61906;BME280;47863;55.766;37.672;2023-05-07T00:07:17;100928.69;;;0.96;38.04
61906;BME280;47863;55.766;37.672;2023-05-07T00:09:43;100938.97;;;1.02;38.01
61906;BME280;47863;55.766;37.672;2023-05-07T00:12:09;100939.97;;;0.99;38.05
61906;BME280;47863;55.766;37.672;2023-05-07T00:14:35;100894.63;;;0.72;37.95
61906;BME280;47863;55.766;37.672;2023-05-07T00:17:01;100939.25;;;0.96;38.22
61906;BME280;47863;55.766;37.672;2023-05-07T00:19:27;100939.25;;;0.96;38.50
61906;BME280;47863;55.766;37.672;2023-05-07T00:21:52;100901.75;;;0.70;38.39
61906;BME280;47863;55.766;37.672;2023-05-07T00:24:19;100942.75;;;0.96;38.66
61906;BME280;47863;55.766;37.672;2023-05-07T00:26:45;100940.19;;;0.95;38.63
61906;BME280;47863;55.766;37.672;2023-05-07T00:29:10;100949.88;;;0.94;38.63
61906;BME280;47863;55.766;37.672;2023-05-07T00:31:36;100950.03;;;0.91;38.72
61906;BME280;47863;55.766;37.672;2023-05-07T00:34:02;100957.16;;;0.89;38.58
61906;BME280;47863;55.766;37.672;2023-05-07T00:36:27;100948.59;;;0.84;38.78
61906;BME280;47863;55.766;37.672;2023-05-07T00:38:53;100951.44;;;0.79;38.85
61906;BME280;47863;55.766;37.672;2023-05-07T00:41:20;100951.66;;;0.75;38.71
61906;BME280;47863;55.766;37.672;2023-05-07T00:43:45;100956.78;;;0.78;39.03
61906;BME280;47863;55.766;37.672;2023-05-07T00:46:11;100937.22;;;0.63;39.00
61906;BME280;47863;55.766;37.672;2023-05-07T00:48:37;100917.56;;;0.51;38.85
61906;BME280;47863;55.766;37.672;2023-05-07T00:51:03;100956.91;;;0.75;39.47
61906;BME280;47863;55.766;37.672;2023-05-07T00:53:28;100944.28;;;0.63;39.36
61906;BME280;47863;55.766;37.672;2023-05-07T00:55:56;100926.41;;;0.50;39.12
61906;BME280;47863;55.766;37.672;2023-05-07T00:58:22;100933.31;;;0.53;39.40
61906;BME280;47863;55.766;37.672;2023-05-07T01:00:48;100945.13;;;0.63;39.25
61906;BME280;47863;55.766;37.672;2023-05-07T01:03:13;100960.78;;;0.68;39.61
61906;BME280;47863;55.766;37.672;2023-05-07T01:05:39;100956.41;;;0.67;39.49
61906;BME280;47863;55.766;37.672;2023-05-07T01:08:06;100905.09;;;0.36;39.85
61906;BME280;47863;55.766;37.672;2023-05-07T01:10:32;100962.63;;;0.66;39.90
61906;BME280;47863;55.766;37.672;2023-05-07T01:12:58;100958.31;;;0.63;40.01
61906;BME280;47863;55.766;37.672;2023-05-07T01:15:25;100959.28;;;0.62;39.93
61906;BME280;47863;55.766;37.672;2023-05-07T01:17:51;100962.81;;;0.61;40.27
61906;BME280;47863;55.766;37.672;2023-05-07T01:20:17;100921.88;;;0.33;40.16
61906;BME280;47863;55.766;37.672;2023-05-07T01:22:43;100967.41;;;0.57;40.18
61906;BME280;47863;55.766;37.672;2023-05-07T01:25:09;100966.50;;;0.57;40.41
61906;BME280;47863;55.766;37.672;2023-05-07T01:27:35;100957.03;;;0.53;40.63
61906;BME280;47863;55.766;37.672;2023-05-07T01:30:02;100970.94;;;0.56;40.40
61906;BME280;47863;55.766;37.672;2023-05-07T01:32:52;100973.72;;;0.53;40.83
61906;BME280;47863;55.766;37.672;2023-05-07T01:35:20;100933.69;;;0.25;40.06
61906;BME280;47863;55.766;37.672;2023-05-07T01:37:48;100972.00;;;0.52;40.13
61906;BME280;47863;55.766;37.672;2023-05-07T01:40:15;100972.13;;;0.49;40.27
61906;BME280;47863;55.766;37.672;2023-05-07T01:42:43;100978.34;;;0.48;40.26
61906;BME280;47863;55.766;37.672;2023-05-07T01:45:09;100945.91;;;0.26;40.28
61906;BME280;47863;55.766;37.672;2023-05-07T01:47:36;100981.97;;;0.46;40.50
61906;BME280;47863;55.766;37.672;2023-05-07T01:50:01;100965.97;;;0.30;40.47
61906;BME280;47863;55.766;37.672;2023-05-07T01:52:29;100969.41;;;0.32;40.32
61906;BME280;47863;55.766;37.672;2023-05-07T01:54:55;100971.03;;;0.34;40.37
61906;BME280;47863;55.766;37.672;2023-05-07T01:57:20;100983.81;;;0.44;40.53
61906;BME280;47863;55.766;37.672;2023-05-07T01:59:46;100959.81;;;0.29;40.75
61906;BME280;47863;55.766;37.672;2023-05-07T02:02:12;100992.38;;;0.49;40.97
61906;BME280;47863;55.766;37.672;2023-05-07T02:04:37;101002.00;;;0.50;40.73
61906;BME280;47863;55.766;37.672;2023-05-07T02:07:03;100995.78;;;0.51;40.87
61906;BME280;47863;55.766;37.672;2023-05-07T02:09:29;101004.50;;;0.53;40.85
61906;BME280;47863;55.766;37.672;2023-05-07T02:11:55;100974.34;;;0.39;40.76
61906;BME280;47863;55.766;37.672;2023-05-07T02:14:20;101000.00;;;0.55;41.03
61906;BME280;47863;55.766;37.672;2023-05-07T02:16:46;101004.38;;;0.56;40.60
61906;BME280;47863;55.766;37.672;2023-05-07T02:19:12;101013.19;;;0.55;40.77
61906;BME280;47863;55.766;37.672;2023-05-07T02:21:38;101018.47;;;0.55;40.84
61906;BME280;47863;55.766;37.672;2023-05-07T02:24:04;101014.69;;;0.61;40.87
61906;BME280;47863;55.766;37.672;2023-05-07T02:26:29;101013.78;;;0.62;41.55
61906;BME280;47863;55.766;37.672;2023-05-07T02:28:55;101005.22;;;0.56;41.38
61906;BME280;47863;55.766;37.672;2023-05-07T02:31:20;101022.22;;;0.70;41.29
61906;BME280;47863;55.766;37.672;2023-05-07T02:33:46;101016.78;;;0.73;41.16
61906;BME280;47863;55.766;37.672;2023-05-07T02:36:12;101025.50;;;0.75;41.06
61906;BME280;47863;55.766;37.672;2023-05-07T02:38:38;100973.34;;;0.42;41.09
61906;BME280;47863;55.766;37.672;2023-05-07T02:41:04;100981.50;;;0.56;41.18
61906;BME280;47863;55.766;37.672;2023-05-07T02:43:30;100983.91;;;0.61;41.21
61906;BME280;47863;55.766;37.672;2023-05-07T02:46:05;101035.38;;;0.90;41.58
61906;BME280;47863;55.766;37.672;2023-05-07T02:48:31;100997.47;;;0.72;41.28
61906;BME280;47863;55.766;37.672;2023-05-07T02:50:58;101049.06;;;0.98;41.30
61906;BME280;47863;55.766;37.672;2023-05-07T02:53:23;101044.56;;;1.01;41.60
61906;BME280;47863;55.766;37.672;2023-05-07T02:56:00;101055.00;;;1.04;41.69
61906;BME280;47863;55.766;37.672;2023-05-07T02:58:26;101024.09;;;0.87;41.38
61906;BME280;47863;55.766;37.672;2023-05-07T03:00:53;101055.78;;;1.06;41.58
61906;BME280;47863;55.766;37.672;2023-05-07T03:03:20;101054.88;;;1.07;41.25
61906;BME280;47863;55.766;37.672;2023-05-07T03:05:46;101053.81;;;1.11;41.54
61906;BME280;47863;55.766;37.672;2023-05-07T03:08:12;101051.00;;;1.14;41.54
61906;BME280;47863;55.766;37.672;2023-05-07T03:10:37;101051.00;;;1.14;41.36
61906;BME280;47863;55.766;37.672;2023-05-07T03:13:03;101044.94;;;1.12;41.52
61906;BME280;47863;55.766;37.672;2023-05-07T03:15:29;101056.78;;;1.22;41.46
61906;BME280;47863;55.766;37.672;2023-05-07T03:17:55;101061.09;;;1.25;41.46
61906;BME280;47863;55.766;37.672;2023-05-07T03:20:21;101069.81;;;1.27;41.27
61906;BME280;47863;55.766;37.672;2023-05-07T03:22:47;101059.94;;;1.30;41.27
61906;BME280;47863;55.766;37.672;2023-05-07T03:25:13;101050.72;;;1.20;41.83
61906;BME280;47863;55.766;37.672;2023-05-07T03:27:40;101063.78;;;1.42;41.55
61906;BME280;47863;55.766;37.672;2023-05-07T03:30:08;101055.31;;;1.35;41.69
61906;BME280;47863;55.766;37.672;2023-05-07T03:32:34;101073.66;;;1.57;41.37
61906;BME280;47863;55.766;37.672;2023-05-07T03:35:03;101050.34;;;1.48;41.68
61906;BME280;47863;55.766;37.672;2023-05-07T03:37:29;101081.78;;;1.72;41.70
61906;BME280;47863;55.766;37.672;2023-05-07T03:39:55;101084.81;;;1.82;41.87
61906;BME280;47863;55.766;37.672;2023-05-07T03:42:21;101044.22;;;1.65;41.61
61906;BME280;47863;55.766;37.672;2023-05-07T03:44:46;101082.41;;;1.96;41.71
61906;BME280;47863;55.766;37.672;2023-05-07T03:47:12;101083.66;;;2.06;41.56
61906;BME280;47863;55.766;37.672;2023-05-07T03:49:39;101072.66;;;2.15;41.67
61906;BME280;47863;55.766;37.672;2023-05-07T03:52:05;101080.88;;;2.27;41.79
61906;BME280;47863;55.766;37.672;2023-05-07T03:54:31;101072.88;;;2.28;41.54
61906;BME280;47863;55.766;37.672;2023-05-07T03:56:56;101052.50;;;2.30;41.74
61906;BME280;47863;55.766;37.672;2023-05-07T03:59:22;101058.81;;;2.45;41.80
61906;BME280;47863;55.766;37.672;2023-05-07T04:01:48;101066.81;;;2.61;41.90
61906;BME280;47863;55.766;37.672;2023-05-07T04:04:16;101090.53;;;2.80;41.76
61906;BME280;47863;55.766;37.672;2023-05-07T04:06:42;101092.78;;;2.88;41.78
61906;BME280;47863;55.766;37.672;2023-05-07T04:09:07;101088.03;;;2.94;41.62
61906;BME280;47863;55.766;37.672;2023-05-07T04:11:34;101090.28;;;3.02;42.06
61906;BME280;47863;55.766;37.672;2023-05-07T04:14:00;101089.84;;;3.10;42.45
61906;BME280;47863;55.766;37.672;2023-05-07T04:16:25;101093.91;;;3.17;42.46
61906;BME280;47863;55.766;37.672;2023-05-07T04:18:51;101096.22;;;3.23;41.89
61906;BME280;47863;55.766;37.672;2023-05-07T04:21:18;101098.53;;;3.29;42.25
61906;BME280;47863;55.766;37.672;2023-05-07T04:23:44;101094.97;;;3.30;42.15
61906;BME280;47863;55.766;37.672;2023-05-07T04:26:10;101074.09;;;3.24;42.03
61906;BME280;47863;55.766;37.672;2023-05-07T04:28:35;101105.25;;;3.52;42.35
61906;BME280;47863;55.766;37.672;2023-05-07T04:31:01;101105.69;;;3.61;41.81
61906;BME280;47863;55.766;37.672;2023-05-07T04:33:27;101065.00;;;3.46;42.37
61906;BME280;47863;55.766;37.672;2023-05-07T04:35:53;101108.09;;;3.81;42.08
61906;BME280;47863;55.766;37.672;2023-05-07T04:38:18;101107.66;;;3.89;41.72
61906;BME280;47863;55.766;37.672;2023-05-07T04:40:44;101110.63;;;3.98;41.54
61906;BME280;47863;55.766;37.672;2023-05-07T04:43:10;101110.88;;;4.10;41.89
61906;BME280;47863;55.766;37.672;2023-05-07T04:45:36;101113.72;;;4.23;42.04
61906;BME280;47863;55.766;37.672;2023-05-07T04:48:02;101109.50;;;4.34;41.77
61906;BME280;47863;55.766;37.672;2023-05-07T04:50:28;101116.91;;;4.44;42.19
61906;BME280;47863;55.766;37.672;2023-05-07T04:52:53;101108.03;;;4.45;41.69
61906;BME280;47863;55.766;37.672;2023-05-07T04:55:19;101111.63;;;4.58;42.16
61906;BME280;47863;55.766;37.672;2023-05-07T04:57:46;101114.13;;;4.61;41.82
61906;BME280;47863;55.766;37.672;2023-05-07T05:00:12;101081.72;;;4.40;42.17
61906;BME280;47863;55.766;37.672;2023-05-07T05:02:41;101118.91;;;4.70;42.29
61906;BME280;47863;55.766;37.672;2023-05-07T05:05:08;101116.81;;;4.75;42.20
61906;BME280;47863;55.766;37.672;2023-05-07T05:07:33;101101.75;;;4.76;42.21
61906;BME280;47863;55.766;37.672;2023-05-07T05:09:59;101107.94;;;4.91;41.75
61906;BME280;47863;55.766;37.672;2023-05-07T05:12:25;101116.97;;;5.03;41.76
61906;BME280;47863;55.766;37.672;2023-05-07T05:14:51;101110.34;;;5.10;41.91
61906;BME280;47863;55.766;37.672;2023-05-07T05:17:16;101093.53;;;5.09;41.60
61906;BME280;47863;55.766;37.672;2023-05-07T05:19:42;101108.91;;;5.33;41.86
61906;BME280;47863;55.766;37.672;2023-05-07T05:22:08;101126.66;;;5.47;41.48
61906;BME280;47863;55.766;37.672;2023-05-07T05:24:36;101112.44;;;5.48;41.65
61906;BME280;47863;55.766;37.672;2023-05-07T05:27:02;101124.56;;;5.66;41.80
61906;BME280;47863;55.766;37.672;2023-05-07T05:29:28;101129.56;;;5.85;41.56
61906;BME280;47863;55.766;37.672;2023-05-07T05:31:54;101132.28;;;6.12;41.36
61906;BME280;47863;55.766;37.672;2023-05-07T05:34:19;101123.16;;;6.44;41.09
61906;BME280;47863;55.766;37.672;2023-05-07T05:36:45;101121.34;;;6.97;40.77
61906;BME280;47863;55.766;37.672;2023-05-07T05:39:11;101116.09;;;7.34;40.40
61906;BME280;47863;55.766;37.672;2023-05-07T05:41:38;101133.47;;;7.65;40.26
61906;BME280;47863;55.766;37.672;2023-05-07T05:44:03;101125.44;;;7.65;40.29
61906;BME280;47863;55.766;37.672;2023-05-07T05:46:31;101125.53;;;7.77;40.26
61906;BME280;47863;55.766;37.672;2023-05-07T05:48:57;101117.56;;;8.01;39.95
61906;BME280;47863;55.766;37.672;2023-05-07T05:51:23;101147.84;;;8.37;39.90
61906;BME280;47863;55.766;37.672;2023-05-07T05:53:48;101127.97;;;8.41;39.78
61906;BME280;47863;55.766;37.672;2023-05-07T05:56:15;101132.31;;;8.54;39.73
61906;BME280;47863;55.766;37.672;2023-05-07T05:58:41;101132.03;;;8.46;39.69
61906;BME280;47863;55.766;37.672;2023-05-07T06:01:09;101143.81;;;8.44;39.99
61906;BME280;47863;55.766;37.672;2023-05-07T06:03:39;101141.88;;;8.33;40.10
61906;BME280;47863;55.766;37.672;2023-05-07T06:06:05;101151.94;;;8.42;40.14
61906;BME280;47863;55.766;37.672;2023-05-07T06:08:31;101152.44;;;8.47;39.96
61906;BME280;47863;55.766;37.672;2023-05-07T06:10:57;101155.50;;;8.54;39.56
61906;BME280;47863;55.766;37.672;2023-05-07T06:13:23;101153.09;;;8.62;39.37
61906;BME280;47863;55.766;37.672;2023-05-07T06:15:49;101145.41;;;8.82;39.15
61906;BME280;47863;55.766;37.672;2023-05-07T06:18:17;101157.56;;;9.32;38.55
61906;BME280;47863;55.766;37.672;2023-05-07T06:20:44;101148.44;;;9.80;38.39
61906;BME280;47863;55.766;37.672;2023-05-07T06:23:10;101124.22;;;9.93;38.15
61906;BME280;47863;55.766;37.672;2023-05-07T06:25:36;101142.44;;;10.33;38.01
61906;BME280;47863;55.766;37.672;2023-05-07T06:28:01;101137.78;;;10.67;37.38
61906;BME280;47863;55.766;37.672;2023-05-07T06:30:32;101121.97;;;10.85;37.17
61906;BME280;47863;55.766;37.672;2023-05-07T06:33:01;101139.31;;;11.02;37.32
61906;BME280;47863;55.766;37.672;2023-05-07T06:35:26;101140.28;;;11.22;37.31
61906;BME280;47863;55.766;37.672;2023-05-07T06:37:54;101124.25;;;11.32;36.53
61906;BME280;47863;55.766;37.672;2023-05-07T06:40:20;101147.78;;;12.30;35.87
61906;BME280;47863;55.766;37.672;2023-05-07T06:42:46;101150.31;;;13.00;35.24
61906;BME280;47863;55.766;37.672;2023-05-07T06:45:12;101147.63;;;13.95;34.71
61906;BME280;47863;55.766;37.672;2023-05-07T06:47:37;101150.34;;;14.94;33.84
61906;BME280;47863;55.766;37.672;2023-05-07T06:50:06;101136.91;;;15.89;33.20
61906;BME280;47863;55.766;37.672;2023-05-07T06:52:32;101151.63;;;16.62;32.54
61906;BME280;47863;55.766;37.672;2023-05-07T06:55:01;101158.09;;;17.02;31.76
61906;BME280;47863;55.766;37.672;2023-05-07T06:57:29;101151.06;;;18.90;30.67
61906;BME280;47863;55.766;37.672;2023-05-07T06:59:55;101140.75;;;20.13;29.79
61906;BME280;47863;55.766;37.672;2023-05-07T07:02:26;101144.34;;;21.84;27.36
61906;BME280;47863;55.766;37.672;2023-05-07T07:04:57;101130.66;;;23.79;27.36
61906;BME280;47863;55.766;37.672;2023-05-07T07:07:22;101123.59;;;24.55;27.06
61906;BME280;47863;55.766;37.672;2023-05-07T07:09:50;101149.41;;;23.69;27.96
61906;BME280;47863;55.766;37.672;2023-05-07T07:12:25;101144.22;;;22.67;26.80
61906;BME280;47863;55.766;37.672;2023-05-07T07:14:51;101147.94;;;22.46;27.55
61906;BME280;47863;55.766;37.672;2023-05-07T07:17:17;101071.38;;;20.88;29.05
61906;BME280;47863;55.766;37.672;2023-05-07T07:19:48;101138.44;;;19.80;29.58
61906;BME280;47863;55.766;37.672;2023-05-07T07:22:21;101148.44;;;18.82;28.92
61906;BME280;47863;55.766;37.672;2023-05-07T07:24:49;101148.47;;;17.80;29.71
61906;BME280;47863;55.766;37.672;2023-05-07T07:27:20;101152.47;;;16.62;31.00
61906;BME280;47863;55.766;37.672;2023-05-07T07:29:49;101156.53;;;15.65;31.92
61906;BME280;47863;55.766;37.672;2023-05-07T07:32:17;101125.78;;;14.79;32.04
61906;BME280;47863;55.766;37.672;2023-05-07T07:34:43;101110.09;;;15.01;31.23
61906;BME280;47863;55.766;37.672;2023-05-07T07:37:19;101150.09;;;17.50;28.76
61906;BME280;47863;55.766;37.672;2023-05-07T07:40:08;101150.69;;;18.70;27.71
61906;BME280;47863;55.766;37.672;2023-05-07T07:42:36;101148.94;;;18.54;27.09
61906;BME280;47863;55.766;37.672;2023-05-07T07:45:05;101126.44;;;17.75;27.27
61906;BME280;47863;55.766;37.672;2023-05-07T07:47:31;101149.66;;;16.89;28.27
61906;BME280;47863;55.766;37.672;2023-05-07T07:49:59;101122.66;;;17.44;27.63
61906;BME280;47863;55.766;37.672;2023-05-07T07:52:30;101107.81;;;17.88;27.19
61906;BME280;47863;55.766;37.672;2023-05-07T07:54:55;101143.84;;;18.82;26.65
61906;BME280;47863;55.766;37.672;2023-05-07T07:57:33;101141.28;;;21.31;25.03
61906;BME280;47863;55.766;37.672;2023-05-07T08:00:02;101137.84;;;23.80;23.42
61906;BME280;47863;55.766;37.672;2023-05-07T08:02:31;101140.75;;;24.30;23.29
61906;BME280;47863;55.766;37.672;2023-05-07T08:04:57;101141.66;;;23.46;23.40
61906;BME280;47863;55.766;37.672;2023-05-07T08:07:25;101142.97;;;22.15;24.84
61906;BME280;47863;55.766;37.672;2023-05-07T08:10:01;101141.66;;;20.99;24.45
61906;BME280;47863;55.766;37.672;2023-05-07T08:12:30;101137.75;;;21.72;23.96
61906;BME280;47863;55.766;37.672;2023-05-07T08:15:00;101148.00;;;22.05;22.12
61906;BME280;47863;55.766;37.672;2023-05-07T08:17:30;101136.66;;;21.66;22.97
61906;BME280;47863;55.766;37.672;2023-05-07T08:19:56;101145.31;;;22.18;23.00
61906;BME280;47863;55.766;37.672;2023-05-07T08:22:24;101147.66;;;24.40;21.65
61906;BME280;47863;55.766;37.672;2023-05-07T08:24:52;101139.81;;;26.97;19.89
61906;BME280;47863;55.766;37.672;2023-05-07T08:27:21;101117.56;;;29.18;19.10
61906;BME280;47863;55.766;37.672;2023-05-07T08:29:55;101140.09;;;31.29;17.72
61906;BME280;47863;55.766;37.672;2023-05-07T08:32:27;101140.09;;;32.70;17.63
61906;BME280;47863;55.766;37.672;2023-05-07T08:34:55;101142.06;;;34.02;16.61
61906;BME280;47863;55.766;37.672;2023-05-07T08:37:23;101131.97;;;35.29;14.52
61906;BME280;47863;55.766;37.672;2023-05-07T08:39:52;101137.00;;;36.38;14.72
61906;BME280;47863;55.766;37.672;2023-05-07T08:42:23;101108.97;;;37.14;13.74
61906;BME280;47863;55.766;37.672;2023-05-07T08:44:51;101136.44;;;37.81;13.42
61906;BME280;47863;55.766;37.672;2023-05-07T08:47:29;101134.94;;;37.97;12.92
61906;BME280;47863;55.766;37.672;2023-05-07T08:50:02;101141.41;;;37.56;13.80
61906;BME280;47863;55.766;37.672;2023-05-07T08:52:29;101130.00;;;35.78;14.07
61906;BME280;47863;55.766;37.672;2023-05-07T08:54:55;101136.50;;;32.65;15.73
61906;BME280;47863;55.766;37.672;2023-05-07T08:57:37;101125.44;;;29.48;16.48
61906;BME280;47863;55.766;37.672;2023-05-07T09:00:05;101129.41;;;27.69;16.51
61906;BME280;47863;55.766;37.672;2023-05-07T09:02:37;101114.88;;;26.56;16.79
61906;BME280;47863;55.766;37.672;2023-05-07T09:05:05;101095.50;;;25.90;16.98
61906;BME280;47863;55.766;37.672;2023-05-07T09:07:31;101126.75;;;26.50;16.47
61906;BME280;47863;55.766;37.672;2023-05-07T09:10:03;101125.56;;;26.46;16.22
61906;BME280;47863;55.766;37.672;2023-05-07T09:12:32;101131.47;;;25.82;16.12
61906;BME280;47863;55.766;37.672;2023-05-07T09:15:06;101118.34;;;26.63;15.45
61906;BME280;47863;55.766;37.672;2023-05-07T09:17:36;101122.66;;;28.75;14.41
61906;BME280;47863;55.766;37.672;2023-05-07T09:20:06;101064.38;;;30.70;12.69
61906;BME280;47863;55.766;37.672;2023-05-07T09:22:35;101117.34;;;32.73;12.40
61906;BME280;47863;55.766;37.672;2023-05-07T09:25:07;101131.63;;;33.73;12.10
61906;BME280;47863;55.766;37.672;2023-05-07T09:27:36;101123.16;;;33.18;12.23
61906;BME280;47863;55.766;37.672;2023-05-07T09:30:05;101124.53;;;31.22;13.37
61906;BME280;47863;55.766;37.672;2023-05-07T09:32:41;101104.75;;;28.61;14.20
61906;BME280;47863;55.766;37.672;2023-05-07T09:35:17;101116.25;;;26.47;15.46
61906;BME280;47863;55.766;37.672;2023-05-07T09:37:46;101123.81;;;25.29;15.30
61906;BME280;47863;55.766;37.672;2023-05-07T09:40:22;101123.25;;;25.64;14.82
61906;BME280;47863;55.766;37.672;2023-05-07T09:43:08;101121.25;;;25.52;15.21
61906;BME280;47863;55.766;37.672;2023-05-07T09:45:34;101123.38;;;24.82;15.22
61906;BME280;47863;55.766;37.672;2023-05-07T09:48:05;101129.50;;;24.52;15.17
61906;BME280;47863;55.766;37.672;2023-05-07T09:50:48;101096.16;;;25.86;14.28
61906;BME280;47863;55.766;37.672;2023-05-07T09:53:14;101113.38;;;27.55;13.73
61906;BME280;47863;55.766;37.672;2023-05-07T09:55:45;101107.78;;;28.93;13.14
61906;BME280;47863;55.766;37.672;2023-05-07T09:58:18;101089.13;;;30.00;12.68
61906;BME280;47863;55.766;37.672;2023-05-07T10:01:04;101094.81;;;31.45;12.08
61906;BME280;47863;55.766;37.672;2023-05-07T10:03:35;101105.53;;;30.61;12.74
61906;BME280;47863;55.766;37.672;2023-05-07T10:06:04;101119.81;;;29.60;12.51
61906;BME280;47863;55.766;37.672;2023-05-07T10:08:30;101104.22;;;30.69;12.32
61906;BME280;47863;55.766;37.672;2023-05-07T10:11:06;101099.78;;;32.27;12.10
61906;BME280;47863;55.766;37.672;2023-05-07T10:13:33;101100.38;;;33.06;11.65
61906;BME280;47863;55.766;37.672;2023-05-07T10:16:10;101123.53;;;31.92;11.98
61906;BME280;47863;55.766;37.672;2023-05-07T10:18:36;101112.44;;;29.88;12.75
61906;BME280;47863;55.766;37.672;2023-05-07T10:21:27;101123.91;;;27.58;12.39
61906;BME280;47863;55.766;37.672;2023-05-07T10:24:04;101106.38;;;25.79;13.77
61906;BME280;47863;55.766;37.672;2023-05-07T10:26:36;101092.81;;;25.47;14.04
61906;BME280;47863;55.766;37.672;2023-05-07T10:29:10;101061.53;;;25.85;13.27
61906;BME280;47863;55.766;37.672;2023-05-07T10:34:53;101075.38;;;25.41;13.46
61906;BME280;47863;55.766;37.672;2023-05-07T10:37:28;101086.97;;;27.06;12.76
61906;BME280;47863;55.766;37.672;2023-05-07T10:40:05;101073.91;;;28.01;12.34
61906;BME280;47863;55.766;37.672;2023-05-07T10:42:35;101110.03;;;27.53;12.73
61906;BME280;47863;55.766;37.672;2023-05-07T10:45:14;101071.44;;;26.04;13.01
61906;BME280;47863;55.766;37.672;2023-05-07T10:48:11;101103.78;;;24.53;13.91
61906;BME280;47863;55.766;37.672;2023-05-07T10:50:44;101107.22;;;22.98;14.36
61906;BME280;47863;55.766;37.672;2023-05-07T10:55:46;101108.53;;;20.96;15.23
61906;BME280;47863;55.766;37.672;2023-05-07T10:58:35;101090.25;;;19.89;15.17
61906;BME280;47863;55.766;37.672;2023-05-07T11:01:05;101113.75;;;19.07;15.93
61906;BME280;47863;55.766;37.672;2023-05-07T11:03:34;101119.88;;;18.17;16.10
61906;BME280;47863;55.766;37.672;2023-05-07T11:06:13;101114.22;;;17.31;16.41
61906;BME280;47863;55.766;37.672;2023-05-07T11:08:57;101096.19;;;16.66;16.62
61906;BME280;47863;55.766;37.672;2023-05-07T11:11:45;101095.97;;;16.26;16.59
61906;BME280;47863;55.766;37.672;2023-05-07T11:17:11;101124.50;;;16.13;16.69
61906;BME280;47863;55.766;37.672;2023-05-07T11:19:56;101105.72;;;16.03;16.62
61906;BME280;47863;55.766;37.672;2023-05-07T11:25:03;101122.97;;;16.10;16.76
61906;BME280;47863;55.766;37.672;2023-05-07T11:27:30;101105.53;;;15.96;16.66
61906;BME280;47863;55.766;37.672;2023-05-07T11:29:56;101111.91;;;15.87;16.79
61906;BME280;47863;55.766;37.672;2023-05-07T11:32:28;101124.78;;;15.59;17.36
61906;BME280;47863;55.766;37.672;2023-05-07T11:34:55;101126.00;;;15.12;17.48
61906;BME280;47863;55.766;37.672;2023-05-07T11:37:30;101099.50;;;14.81;17.37
61906;BME280;47863;55.766;37.672;2023-05-07T11:40:09;101121.03;;;15.52;17.18
61906;BME280;47863;55.766;37.672;2023-05-07T11:42:40;101111.06;;;16.78;16.85
61906;BME280;47863;55.766;37.672;2023-05-07T11:45:09;101119.75;;;19.02;15.72
61906;BME280;47863;55.766;37.672;2023-05-07T11:47:41;101112.00;;;21.11;15.06
61906;BME280;47863;55.766;37.672;2023-05-07T11:50:07;101121.09;;;22.96;14.28
61906;BME280;47863;55.766;37.672;2023-05-07T11:52:37;101107.25;;;23.05;14.54
61906;BME280;47863;55.766;37.672;2023-05-07T11:55:06;101114.31;;;22.32;15.01
61906;BME280;47863;55.766;37.672;2023-05-07T11:57:33;101061.59;;;21.29;15.47
61906;BME280;47863;55.766;37.672;2023-05-07T12:00:15;101108.81;;;21.08;15.51
61906;BME280;47863;55.766;37.672;2023-05-07T12:02:49;101116.38;;;21.12;15.32
61906;BME280;47863;55.766;37.672;2023-05-07T12:05:15;101106.69;;;21.03;15.40
61906;BME280;47863;55.766;37.672;2023-05-07T12:07:41;101104.34;;;20.72;15.69
61906;BME280;47863;55.766;37.672;2023-05-07T12:10:07;101100.50;;;20.08;16.08
61906;BME280;47863;55.766;37.672;2023-05-07T12:12:46;101110.59;;;19.18;16.37
61906;BME280;47863;55.766;37.672;2023-05-07T12:15:17;101097.38;;;18.31;16.84
61906;BME280;47863;55.766;37.672;2023-05-07T12:17:47;101098.59;;;17.58;17.01
61906;BME280;47863;55.766;37.672;2023-05-07T12:20:23;101087.03;;;17.16;17.24
61906;BME280;47863;55.766;37.672;2023-05-07T12:22:56;101101.94;;;17.68;16.92
61906;BME280;47863;55.766;37.672;2023-05-07T12:25:24;101098.50;;;18.60;16.41
61906;BME280;47863;55.766;37.672;2023-05-07T12:27:55;101106.09;;;19.26;16.12
61906;BME280;47863;55.766;37.672;2023-05-07T12:30:24;101110.63;;;18.95;16.16
61906;BME280;47863;55.766;37.672;2023-05-07T12:32:54;101093.31;;;18.73;16.48
61906;BME280;47863;55.766;37.672;2023-05-07T12:35:29;101084.59;;;18.86;16.26
61906;BME280;47863;55.766;37.672;2023-05-07T12:37:55;101097.91;;;18.96;16.17
61906;BME280;47863;55.766;37.672;2023-05-07T12:43:07;101089.06;;;17.70;16.79
61906;BME280;47863;55.766;37.672;2023-05-07T12:45:41;101104.66;;;17.12;17.23
61906;BME280;47863;55.766;37.672;2023-05-07T12:48:15;101079.59;;;16.28;17.77
61906;BME280;47863;55.766;37.672;2023-05-07T12:50:44;101115.31;;;15.89;17.69
61906;BME280;47863;55.766;37.672;2023-05-07T12:53:11;101104.16;;;15.23;18.33
61906;BME280;47863;55.766;37.672;2023-05-07T12:55:47;101103.63;;;14.94;18.26
61906;BME280;47863;55.766;37.672;2023-05-07T12:58:30;101087.72;;;14.46;18.29
61906;BME280;47863;55.766;37.672;2023-05-07T13:01:05;101087.00;;;14.08;18.45
61906;BME280;47863;55.766;37.672;2023-05-07T13:03:32;101100.09;;;13.76;18.57
61906;BME280;47863;55.766;37.672;2023-05-07T13:06:06;101066.22;;;13.08;19.03
61906;BME280;47863;55.766;37.672;2023-05-07T13:08:39;101011.88;;;12.38;19.15